Time;durP1;ratioP1;P1;durP2;ratioP2;P2;SDS_P1;SDS_P2;PMS_P1;PMS_P2;Temp;Humidity;BMP_temperature;BMP_pressure;BME280_temperature;BME280_humidity;BME280_pressure;Samples;Min_cycle;Max_cycle;Signal;HPM_P1;HPM_P2
2023/08/25 00:00:28;;;;;;;7.50;2.80;;;22.40;1.00;;;;;;5024920;28;20434;-75
2023/08/25 00:02:54;;;;;;;6.00;2.20;;;22.30;1.00;;;;;;5029576;28;20410;-75
2023/08/25 00:05:19;;;;;;;6.90;2.45;;;22.30;1.00;;;;;;5026386;28;20939;-75
2023/08/25 00:07:45;;;;;;;6.90;2.70;;;22.20;1.00;;;;;;5031434;28;20395;-75
2023/08/25 00:10:10;;;;;;;6.50;2.30;;;22.20;1.00;;;;;;5029974;28;20407;-75
2023/08/25 00:12:36;;;;;;;7.03;2.40;;;22.20;1.00;;;;;;5029479;28;20407;-75
2023/08/25 00:15:02;;;;;;;6.40;2.28;;;22.30;1.00;;;;;;5028844;28;20459;-75
2023/08/25 00:17:27;;;;;;;7.00;2.50;;;22.40;1.00;;;;;;5029636;28;20921;-75
2023/08/25 00:19:53;;;;;;;6.13;2.30;;;22.40;1.00;;;;;;5030247;28;20423;-75
2023/08/25 00:22:18;;;;;;;8.33;2.30;;;22.40;1.00;;;;;;5029839;28;20387;-75
2023/08/25 00:24:44;;;;;;;5.70;2.00;;;22.40;1.00;;;;;;5028715;28;20735;-75
2023/08/25 00:27:09;;;;;;;7.43;2.30;;;22.40;1.00;;;;;;5023426;28;20452;-75
2023/08/25 00:29:35;;;;;;;6.03;2.10;;;22.40;1.00;;;;;;5019980;28;20423;-75
2023/08/25 00:32:00;;;;;;;7.27;2.33;;;22.30;1.00;;;;;;5028778;28;20881;-75
2023/08/25 00:34:26;;;;;;;6.80;2.40;;;22.40;1.00;;;;;;5028426;28;20415;-75
2023/08/25 00:36:51;;;;;;;6.53;2.40;;;22.40;1.00;;;;;;5030521;28;20490;-75
2023/08/25 00:39:19;;;;;;;6.63;2.50;;;22.40;1.00;;;;;;5028669;28;21106;-75
2023/08/25 00:41:44;;;;;;;5.80;2.50;;;22.50;1.00;;;;;;5024665;28;20495;-75
2023/08/25 00:44:10;;;;;;;6.10;2.43;;;22.50;1.00;;;;;;5018731;28;20395;-75
2023/08/25 00:46:35;;;;;;;7.90;2.47;;;22.40;1.00;;;;;;5027567;28;20457;-74
2023/08/25 00:49:02;;;;;;;7.30;1.80;;;22.40;1.00;;;;;;5029103;28;20399;-75
2023/08/25 00:51:29;;;;;;;6.20;2.00;;;22.40;1.00;;;;;;5029744;28;20398;-75
2023/08/25 00:53:55;;;;;;;6.35;2.53;;;22.50;1.00;;;;;;5024252;28;20408;-75
2023/08/25 00:56:20;;;;;;;6.10;2.10;;;22.40;1.00;;;;;;5028035;28;20427;-75
2023/08/25 00:58:46;;;;;;;7.35;2.33;;;22.50;1.00;;;;;;5029210;28;20456;-75
2023/08/25 01:01:12;;;;;;;6.72;2.45;;;22.40;1.00;;;;;;5028632;28;20481;-75
2023/08/25 01:03:39;;;;;;;7.70;2.15;;;22.40;1.00;;;;;;5027150;28;20411;-75
2023/08/25 01:06:05;;;;;;;8.07;2.15;;;22.40;1.00;;;;;;5028945;28;20947;-75
2023/08/25 01:08:32;;;;;;;6.75;1.70;;;22.50;1.00;;;;;;5028571;28;20427;-75
2023/08/25 01:11:01;;;;;;;6.90;2.10;;;22.50;1.00;;;;;;5029580;28;20395;-75
2023/08/25 01:13:36;;;;;;;7.05;2.20;;;22.50;1.00;;;;;;5029500;28;20399;-75
2023/08/25 01:16:05;;;;;;;7.50;2.50;;;22.50;1.00;;;;;;5029768;28;20510;-75
2023/08/25 01:18:33;;;;;;;7.38;2.80;;;22.50;1.00;;;;;;5029229;28;20391;-75
2023/08/25 01:20:59;;;;;;;8.23;2.13;;;22.60;1.00;;;;;;5029443;28;20431;-75
2023/08/25 01:23:46;;;;;;;6.82;2.20;;;22.60;1.00;;;;;;5018564;28;20425;-75
2023/08/25 01:26:13;;;;;;;6.30;2.45;;;22.60;1.00;;;;;;5009250;28;20419;-75
2023/08/25 01:28:40;;;;;;;5.95;1.90;;;22.50;1.00;;;;;;5027539;28;20395;-75
2023/08/25 01:31:06;;;;;;;6.50;2.00;;;22.60;1.00;;;;;;5028983;28;20403;-75
2023/08/25 01:33:32;;;;;;;9.10;2.23;;;22.60;1.00;;;;;;5028689;28;20391;-75
2023/08/25 01:36:25;;;;;;;7.20;1.92;;;22.60;1.00;;;;;;5028812;28;20545;-75
2023/08/25 01:39:06;;;;;;;5.93;2.10;;;22.50;1.00;;;;;;5029267;28;20832;-75
2023/08/25 01:41:41;;;;;;;6.60;2.30;;;22.60;1.00;;;;;;5028556;28;20862;-74
2023/08/25 01:44:08;;;;;;;5.82;2.03;;;22.50;1.00;;;;;;5028328;28;20763;-75
2023/08/25 01:46:37;;;;;;;5.72;1.90;;;22.50;1.00;;;;;;5027240;28;20426;-75
2023/08/25 01:49:04;;;;;;;6.40;2.17;;;22.40;1.00;;;;;;5028322;28;20822;-75
2023/08/25 01:51:30;;;;;;;5.10;1.70;;;22.40;1.00;;;;;;5025776;28;20975;-75
2023/08/25 01:53:57;;;;;;;7.47;2.20;;;22.30;1.00;;;;;;5027095;28;20410;-75
2023/08/25 01:56:22;;;;;;;6.30;1.70;;;22.20;1.00;;;;;;5028359;28;20472;-75
2023/08/25 01:58:49;;;;;;;6.63;2.13;;;22.20;1.00;;;;;;5028354;28;20399;-75
2023/08/25 02:01:14;;;;;;;7.37;2.20;;;22.20;1.00;;;;;;5019154;28;20439;-75
2023/08/25 02:03:40;;;;;;;5.72;1.83;;;22.20;1.00;;;;;;5026027;28;20821;-74
2023/08/25 02:06:08;;;;;;;7.85;2.33;;;22.20;1.00;;;;;;5027097;28;20399;-74
2023/08/25 02:08:34;;;;;;;6.20;2.10;;;22.30;99.90;;;;;;5026413;28;20418;-75
2023/08/25 02:10:59;;;;;;;6.07;1.80;;;22.40;99.90;;;;;;5018399;28;20479;-75
2023/08/25 02:13:25;;;;;;;6.10;2.10;;;22.40;99.90;;;;;;5023107;28;20419;-75
2023/08/25 02:15:52;;;;;;;7.20;2.17;;;22.40;99.90;;;;;;5027165;28;20477;-75
2023/08/25 02:18:17;;;;;;;7.30;1.80;;;22.50;99.90;;;;;;5023850;28;20410;-75
2023/08/25 02:20:44;;;;;;;6.20;2.10;;;22.50;99.90;;;;;;5027653;28;20409;-75
2023/08/25 02:23:09;;;;;;;6.85;2.00;;;22.50;99.90;;;;;;5028431;28;20391;-75
2023/08/25 02:25:35;;;;;;;5.80;1.90;;;22.60;99.90;;;;;;5023241;28;20425;-75
2023/08/25 02:28:01;;;;;;;7.80;2.10;;;22.60;99.90;;;;;;5028307;28;20410;-74
2023/08/25 02:30:26;;;;;;;6.40;2.10;;;22.60;99.90;;;;;;5026642;28;20415;-74
2023/08/25 02:32:52;;;;;;;6.00;2.10;;;22.60;99.90;;;;;;5028362;28;20422;-75
2023/08/25 02:35:17;;;;;;;6.07;2.03;;;22.60;99.90;;;;;;5027870;28;20425;-75
2023/08/25 02:38:04;;;;;;;6.72;2.20;;;22.50;99.90;;;;;;5030442;28;20433;-75
2023/08/25 02:40:29;;;;;;;5.70;1.80;;;22.50;99.90;;;;;;5018006;28;20409;-75
2023/08/25 02:42:57;;;;;;;7.75;1.70;;;22.50;99.90;;;;;;5012428;28;20412;-76
2023/08/25 02:45:23;;;;;;;9.48;1.90;;;22.70;99.90;;;;;;5030641;28;20398;-76
2023/08/25 02:47:49;;;;;;;5.70;1.90;;;22.70;99.90;;;;;;5031281;28;20418;-76
2023/08/25 02:50:15;;;;;;;6.60;2.38;;;22.80;99.90;;;;;;5031332;28;20410;-73
2023/08/25 02:52:40;;;;;;;6.65;1.85;;;22.70;99.90;;;;;;5031488;28;20421;-73
2023/08/25 02:55:06;;;;;;;6.47;2.00;;;22.50;1.00;;;;;;5025404;28;20503;-73
2023/08/25 02:57:32;;;;;;;5.90;1.92;;;22.40;1.00;;;;;;5031117;28;20434;-73
2023/08/25 02:59:57;;;;;;;6.10;2.10;;;22.30;1.00;;;;;;5031647;28;20454;-73
2023/08/25 03:02:23;;;;;;;5.50;1.90;;;22.10;1.00;;;;;;5031801;28;20485;-73
2023/08/25 03:04:48;;;;;;;6.10;2.00;;;22.00;1.00;;;;;;5029024;28;20909;-73
2023/08/25 03:07:14;;;;;;;9.10;1.90;;;22.00;1.00;;;;;;5024862;28;20411;-74
2023/08/25 03:09:39;;;;;;;6.00;2.30;;;22.00;1.00;;;;;;5024781;28;20406;-73
2023/08/25 03:12:05;;;;;;;7.10;2.20;;;22.10;1.00;;;;;;5031013;28;20414;-73
2023/08/25 03:14:31;;;;;;;5.82;1.95;;;22.00;1.00;;;;;;5030842;28;20398;-73
2023/08/25 03:16:56;;;;;;;6.40;1.90;;;21.90;1.00;;;;;;5029299;28;20414;-73
2023/08/25 03:19:22;;;;;;;6.88;1.90;;;21.90;1.00;;;;;;5030962;28;20415;-73
2023/08/25 03:21:47;;;;;;;6.45;2.20;;;22.10;1.00;;;;;;5030056;28;20417;-73
2023/08/25 03:24:12;;;;;;;6.45;2.25;;;22.10;1.00;;;;;;5029347;28;20418;-75
2023/08/25 03:26:38;;;;;;;6.88;2.42;;;22.10;1.00;;;;;;5031232;28;20405;-76
2023/08/25 03:29:04;;;;;;;6.18;2.20;;;22.10;1.00;;;;;;5031005;28;20948;-73
2023/08/25 03:31:29;;;;;;;6.75;2.38;;;22.00;1.00;;;;;;5028661;28;20415;-75
2023/08/25 03:33:55;;;;;;;5.68;2.20;;;21.90;1.00;;;;;;5031152;28;20478;-76
2023/08/25 03:36:20;;;;;;;6.03;2.00;;;21.90;1.00;;;;;;5031539;28;20522;-75
2023/08/25 03:38:46;;;;;;;7.25;2.20;;;21.80;1.00;;;;;;5031061;28;20403;-75
2023/08/25 03:41:12;;;;;;;6.63;2.15;;;21.80;1.00;;;;;;5031146;28;20391;-75
2023/08/25 03:43:37;;;;;;;7.03;2.50;;;21.80;1.00;;;;;;5030447;28;20742;-75
2023/08/25 03:46:03;;;;;;;7.90;2.00;;;21.80;1.00;;;;;;5030555;28;20375;-75
2023/08/25 03:48:29;;;;;;;6.20;2.10;;;21.80;1.00;;;;;;5030322;28;20391;-76
2023/08/25 03:50:54;;;;;;;6.45;1.95;;;21.80;1.00;;;;;;5030062;28;20403;-75
2023/08/25 03:53:20;;;;;;;6.30;2.10;;;21.90;1.00;;;;;;5029906;28;20411;-76
2023/08/25 03:55:45;;;;;;;6.30;2.60;;;21.90;1.00;;;;;;5030459;28;20484;-77
2023/08/25 03:58:12;;;;;;;6.60;2.20;;;21.90;1.00;;;;;;5031054;28;21194;-77
2023/08/25 04:00:38;;;;;;;6.30;1.90;;;21.90;1.00;;;;;;5031506;28;20526;-77
2023/08/25 04:03:06;;;;;;;6.35;2.00;;;21.90;1.00;;;;;;5030244;28;21059;-77
2023/08/25 04:05:34;;;;;;;7.32;1.92;;;21.80;1.00;;;;;;5020417;28;20405;-76
2023/08/25 04:08:00;;;;;;;6.50;2.10;;;21.70;1.00;;;;;;5027381;28;20411;-75
2023/08/25 04:10:26;;;;;;;10.30;2.53;;;21.60;1.00;;;;;;5029717;28;20773;-76
2023/08/25 04:12:51;;;;;;;11.30;2.50;;;21.60;1.00;;;;;;5030159;28;20431;-75
2023/08/25 04:15:20;;;;;;;7.30;2.60;;;21.60;1.00;;;;;;5029733;28;20423;-76
2023/08/25 04:17:46;;;;;;;10.50;2.33;;;21.60;1.00;;;;;;5030402;28;20387;-75
2023/08/25 04:20:12;;;;;;;6.70;2.40;;;21.50;1.00;;;;;;5028124;28;20423;-76
2023/08/25 04:22:37;;;;;;;10.03;2.43;;;21.60;1.00;;;;;;5029418;28;20419;-76
2023/08/25 04:25:04;;;;;;;6.10;2.20;;;21.60;1.00;;;;;;5027452;28;20407;-74
2023/08/25 04:27:30;;;;;;;6.50;2.40;;;21.50;1.00;;;;;;5029462;28;20512;-74
2023/08/25 04:29:55;;;;;;;8.85;2.70;;;21.60;1.00;;;;;;5027859;28;20925;-74
2023/08/25 04:32:22;;;;;;;6.40;2.30;;;21.60;1.00;;;;;;5030390;28;20426;-74
2023/08/25 04:34:48;;;;;;;5.90;2.03;;;21.60;1.00;;;;;;5028675;28;20485;-74
2023/08/25 04:37:13;;;;;;;6.60;2.70;;;21.60;1.00;;;;;;5010037;28;20428;-73
2023/08/25 04:39:40;;;;;;;5.53;1.95;;;21.60;1.00;;;;;;5021352;28;20414;-75
2023/08/25 04:42:06;;;;;;;6.25;2.35;;;21.60;1.00;;;;;;5014986;28;20426;-75
2023/08/25 04:44:31;;;;;;;6.03;2.10;;;21.60;1.00;;;;;;5030190;28;20761;-78
2023/08/25 04:46:57;;;;;;;7.53;2.57;;;21.60;1.00;;;;;;5029671;28;20794;-78
2023/08/25 04:49:22;;;;;;;6.70;2.50;;;21.60;1.00;;;;;;5029452;28;20418;-75
2023/08/25 04:51:48;;;;;;;6.60;2.40;;;21.50;1.00;;;;;;5023680;28;20405;-75
2023/08/25 04:54:14;;;;;;;7.30;2.60;;;21.50;1.00;;;;;;5020553;28;20410;-75
2023/08/25 04:56:39;;;;;;;7.60;2.45;;;21.60;1.00;;;;;;5028251;28;20527;-75
2023/08/25 04:59:05;;;;;;;7.20;2.50;;;21.50;1.00;;;;;;5028757;28;20410;-75
2023/08/25 05:01:30;;;;;;;9.20;2.70;;;21.50;1.00;;;;;;5026308;28;20431;-75
2023/08/25 05:03:56;;;;;;;6.93;2.20;;;21.30;1.00;;;;;;5027947;28;20422;-75
2023/08/25 05:06:21;;;;;;;8.50;2.50;;;21.30;1.00;;;;;;5022801;28;20453;-75
2023/08/25 05:08:47;;;;;;;7.70;2.70;;;21.30;1.00;;;;;;5028484;28;20398;-75
2023/08/25 05:11:13;;;;;;;5.40;1.90;;;21.40;1.00;;;;;;5027271;28;20456;-75
2023/08/25 05:13:41;;;;;;;7.07;3.10;;;21.40;1.70;;;;;;5028405;28;20476;-75
2023/08/25 05:16:08;;;;;;;8.73;3.15;;;21.50;1.00;;;;;;5028276;28;20427;-75
2023/08/25 05:18:34;;;;;;;6.75;2.80;;;21.60;1.00;;;;;;5018994;28;20407;-75
2023/08/25 05:21:00;;;;;;;9.40;3.10;;;21.80;1.00;;;;;;5022927;28;20476;-75
2023/08/25 05:23:27;;;;;;;7.10;3.00;;;22.10;1.00;;;;;;5026791;28;20493;-75
2023/08/25 05:25:52;;;;;;;6.70;2.42;;;22.20;1.00;;;;;;5028769;28;20393;-75
2023/08/25 05:28:18;;;;;;;6.17;2.30;;;22.40;1.00;;;;;;5026916;28;20785;-75
2023/08/25 05:30:50;;;;;;;7.97;2.80;;;22.50;1.00;;;;;;5027634;28;20403;-73
2023/08/25 05:33:16;;;;;;;8.60;2.80;;;23.00;1.00;;;;;;5028316;28;20461;-73
2023/08/25 05:35:41;;;;;;;6.18;2.60;;;23.20;1.00;;;;;;5028167;28;20423;-73
2023/08/25 05:38:07;;;;;;;9.20;2.60;;;23.70;1.00;;;;;;5027225;28;20395;-73
2023/08/25 05:40:32;;;;;;;6.70;2.40;;;24.20;99.90;;;;;;5027796;28;20403;-73
2023/08/25 05:42:58;;;;;;;9.00;2.70;;;24.40;1.00;;;;;;5028105;28;20412;-73
2023/08/25 05:45:23;;;;;;;14.70;2.90;;;24.50;1.00;;;;;;5028109;28;20418;-74
2023/08/25 05:47:49;;;;;;;7.15;2.88;;;24.70;34.70;;;;;;5026488;28;20916;-74
2023/08/25 05:50:15;;;;;;;7.00;2.63;;;24.90;1.00;;;;;;5010228;28;20411;-73
2023/08/25 05:52:41;;;;;;;7.85;2.78;;;24.80;1.00;;;;;;5008743;28;20572;-75
2023/08/25 05:55:08;;;;;;;11.57;7.38;;;24.90;99.90;;;;;;5019366;28;20434;-75
2023/08/25 05:57:34;;;;;;;8.23;3.45;;;25.00;1.00;;;;;;5016411;28;20415;-76
2023/08/25 05:59:59;;;;;;;9.33;2.87;;;24.80;99.90;;;;;;4923573;28;2877056;-75
2023/08/25 06:02:25;;;;;;;7.87;2.70;;;24.60;1.00;;;;;;5014244;28;20425;-76
2023/08/25 06:04:50;;;;;;;6.73;2.60;;;24.20;1.00;;;;;;5019312;28;20411;-75
2023/08/25 06:07:16;;;;;;;8.93;2.03;;;23.90;1.00;;;;;;5016207;28;20508;-76
2023/08/25 06:09:41;;;;;;;6.43;2.60;;;23.50;91.00;;;;;;5018075;28;20920;-75
2023/08/25 06:12:08;;;;;;;7.13;2.10;;;23.20;99.90;;;;;;5018690;28;20420;-76
2023/08/25 06:14:35;;;;;;;7.13;2.47;;;23.00;99.90;;;;;;5014551;28;20401;-74
2023/08/25 06:17:01;;;;;;;6.87;2.53;;;23.00;1.00;;;;;;5018327;28;20401;-75
2023/08/25 06:19:26;;;;;;;9.80;2.60;;;22.80;1.00;;;;;;5010716;28;20439;-75
2023/08/25 06:21:52;;;;;;;6.80;2.30;;;22.50;1.00;;;;;;5010663;28;20501;-75
2023/08/25 06:24:17;;;;;;;10.17;2.77;;;22.30;1.00;;;;;;5018993;28;20406;-76
2023/08/25 06:26:43;;;;;;;7.40;2.37;;;21.90;1.00;;;;;;5024112;28;20483;-75
2023/08/25 06:29:09;;;;;;;10.25;3.50;;;21.80;1.00;;;;;;5013659;28;20419;-70
2023/08/25 06:31:34;;;;;;;7.03;2.70;;;21.80;24.50;;;;;;5017836;28;20507;-69
2023/08/25 06:34:03;;;;;;;8.43;3.10;;;22.00;15.20;;;;;;5015311;28;20887;-70
2023/08/25 06:36:32;;;;;;;8.32;3.33;;;21.90;1.00;;;;;;5016635;28;20471;-70
2023/08/25 06:38:58;;;;;;;6.78;3.05;;;21.70;4.10;;;;;;5016398;28;20415;-69
2023/08/25 06:41:24;;;;;;;7.65;3.10;;;21.50;45.60;;;;;;5021208;28;20822;-69
2023/08/25 06:43:50;;;;;;;7.90;3.50;;;21.50;83.70;;;;;;5009310;28;20417;-70
2023/08/25 06:46:16;;;;;;;7.10;2.95;;;21.50;91.60;;;;;;5024597;28;20504;-70
2023/08/25 06:48:41;;;;;;;7.80;3.20;;;21.50;99.90;;;;;;5015187;28;20752;-70
2023/08/25 06:51:07;;;;;;;8.33;3.30;;;21.50;99.90;;;;;;5018763;28;20417;-69
2023/08/25 06:53:32;;;;;;;8.03;3.20;;;21.40;99.90;;;;;;5021442;28;20815;-70
2023/08/25 06:55:58;;;;;;;9.50;3.30;;;21.40;99.90;;;;;;5016579;28;20499;-69
2023/08/25 06:58:24;;;;;;;7.47;3.45;;;21.30;99.90;;;;;;5023281;28;20415;-70
2023/08/25 07:00:50;;;;;;;7.95;3.20;;;21.40;99.90;;;;;;5018020;28;20533;-69
2023/08/25 07:03:16;;;;;;;8.90;3.80;;;21.30;99.90;;;;;;5017638;28;20949;-70
2023/08/25 07:05:42;;;;;;;9.45;3.45;;;21.10;99.90;;;;;;5016681;28;20400;-70
2023/08/25 07:08:07;;;;;;;8.10;3.80;;;21.20;99.90;;;;;;5016620;28;20405;-70
2023/08/25 07:10:34;;;;;;;10.27;3.63;;;21.30;99.90;;;;;;5020297;28;20978;-70
2023/08/25 07:13:00;;;;;;;10.60;4.00;;;21.30;99.90;;;;;;5017286;28;20399;-70
2023/08/25 07:15:25;;;;;;;9.00;3.33;;;21.40;99.90;;;;;;5022566;28;20500;-70
2023/08/25 07:17:51;;;;;;;9.88;3.70;;;21.30;99.90;;;;;;5010325;28;20409;-70
2023/08/25 07:20:17;;;;;;;8.60;3.90;;;21.40;99.90;;;;;;5021474;28;20428;-69
2023/08/25 07:22:42;;;;;;;10.38;3.30;;;21.40;99.90;;;;;;5018838;28;20400;-70
2023/08/25 07:25:08;;;;;;;9.17;4.10;;;21.40;99.90;;;;;;5026035;28;20407;-70
2023/08/25 07:27:34;;;;;;;8.00;3.13;;;21.40;99.90;;;;;;5019779;28;20400;-71
2023/08/25 07:29:59;;;;;;;7.68;3.10;;;21.30;99.90;;;;;;5016417;28;20940;-70
2023/08/25 07:32:26;;;;;;;9.43;3.88;;;21.20;99.90;;;;;;5015999;28;20419;-70
2023/08/25 07:34:51;;;;;;;8.10;3.55;;;21.20;99.90;;;;;;5018309;28;20412;-70
2023/08/25 07:37:17;;;;;;;12.05;3.75;;;21.00;99.90;;;;;;5017738;28;20474;-70
2023/08/25 07:39:42;;;;;;;9.27;3.45;;;21.00;99.90;;;;;;5016345;28;20929;-70
2023/08/25 07:42:08;;;;;;;7.70;3.60;;;20.90;99.90;;;;;;5018280;28;20411;-70
2023/08/25 07:44:35;;;;;;;11.15;3.90;;;20.80;99.90;;;;;;5028508;28;20832;-70
2023/08/25 07:47:01;;;;;;;7.43;3.10;;;20.70;99.90;;;;;;5029814;28;20387;-72
2023/08/25 07:49:26;;;;;;;11.40;3.47;;;20.60;99.90;;;;;;5020072;28;20950;-70
2023/08/25 07:51:52;;;;;;;6.77;2.73;;;20.50;99.90;;;;;;5018836;28;20762;-70
2023/08/25 07:54:17;;;;;;;8.03;3.20;;;20.50;99.90;;;;;;5025998;28;20415;-70
2023/08/25 07:56:43;;;;;;;10.27;3.30;;;20.60;99.90;;;;;;5023572;28;20453;-70
2023/08/25 07:59:10;;;;;;;10.38;3.28;;;20.80;99.90;;;;;;5027121;28;20470;-70
2023/08/25 08:01:35;;;;;;;6.53;2.70;;;20.70;99.90;;;;;;5020746;28;20462;-70
2023/08/25 08:04:01;;;;;;;7.87;3.37;;;20.60;99.90;;;;;;5013058;28;20440;-70
2023/08/25 08:06:26;;;;;;;8.27;3.40;;;20.60;99.90;;;;;;5025671;28;20411;-70
2023/08/25 08:08:52;;;;;;;6.28;2.45;;;20.50;99.90;;;;;;5014171;28;20404;-71
2023/08/25 08:11:18;;;;;;;5.90;2.65;;;20.60;99.90;;;;;;5017068;28;20891;-70
2023/08/25 08:13:43;;;;;;;7.78;2.50;;;20.70;99.90;;;;;;5027589;28;20537;-70
2023/08/25 08:16:09;;;;;;;7.13;2.20;;;20.60;99.90;;;;;;5018658;28;20438;-70
2023/08/25 08:18:34;;;;;;;6.50;2.43;;;20.60;99.90;;;;;;5023793;28;20458;-71
2023/08/25 08:21:00;;;;;;;7.33;3.00;;;20.70;99.90;;;;;;5025561;28;20554;-70
2023/08/25 08:23:26;;;;;;;5.95;2.20;;;20.70;99.90;;;;;;5026414;28;20411;-70
2023/08/25 08:25:51;;;;;;;6.80;2.28;;;20.70;99.90;;;;;;5024591;28;20867;-71
2023/08/25 08:28:17;;;;;;;5.90;2.50;;;20.70;99.90;;;;;;5028478;28;20422;-70
2023/08/25 08:30:43;;;;;;;7.82;2.55;;;20.70;99.90;;;;;;5025032;28;20846;-72
2023/08/25 08:33:09;;;;;;;5.53;2.00;;;20.70;99.90;;;;;;5028245;28;20411;-72
2023/08/25 08:35:35;;;;;;;5.07;2.03;;;20.70;99.90;;;;;;5022876;28;20790;-70
2023/08/25 08:38:00;;;;;;;5.95;2.10;;;20.60;99.90;;;;;;5020776;28;20403;-73
2023/08/25 08:40:31;;;;;;;7.68;2.60;;;20.50;99.90;;;;;;5029821;28;20805;-72
2023/08/25 08:43:02;;;;;;;8.57;2.50;;;20.50;99.90;;;;;;5027703;28;20407;-70
2023/08/25 08:45:33;;;;;;;6.00;2.20;;;20.60;99.90;;;;;;5028264;28;20890;-71
2023/08/25 08:48:00;;;;;;;8.65;2.42;;;20.70;99.90;;;;;;5027279;28;20398;-71
2023/08/25 08:50:26;;;;;;;8.73;2.33;;;20.70;99.90;;;;;;5024527;28;20497;-71
2023/08/25 08:52:51;;;;;;;5.20;1.70;;;20.80;99.90;;;;;;5025113;28;20823;-70
2023/08/25 08:55:20;;;;;;;7.73;2.70;;;20.80;99.90;;;;;;5022249;28;20427;-71
2023/08/25 08:57:45;;;;;;;8.90;2.35;;;20.80;99.90;;;;;;5026299;28;20403;-72
2023/08/25 09:00:12;;;;;;;5.87;2.13;;;20.70;99.90;;;;;;5027221;28;20423;-71
2023/08/25 09:02:43;;;;;;;7.50;2.50;;;20.70;99.90;;;;;;5026158;28;20401;-72
2023/08/25 09:05:11;;;;;;;6.20;2.20;;;20.70;99.90;;;;;;5028600;28;20433;-72
2023/08/25 09:07:38;;;;;;;7.10;2.47;;;20.80;99.90;;;;;;5027933;28;20407;-71
2023/08/25 09:10:04;;;;;;;7.07;2.50;;;20.90;99.90;;;;;;5026917;28;20449;-72
2023/08/25 09:12:29;;;;;;;8.68;2.70;;;20.90;99.90;;;;;;5025081;28;20395;-70
2023/08/25 09:14:55;;;;;;;8.90;2.50;;;21.00;99.90;;;;;;5023647;28;20442;-71
2023/08/25 09:17:21;;;;;;;6.60;2.70;;;21.00;99.90;;;;;;5017222;28;20474;-71
2023/08/25 09:19:48;;;;;;;6.80;2.83;;;21.00;99.90;;;;;;5017244;28;20414;-71
2023/08/25 09:22:16;;;;;;;8.07;3.28;;;21.00;99.90;;;;;;5012183;28;20762;-72
2023/08/25 09:24:43;;;;;;;8.98;2.80;;;21.10;99.90;;;;;;5027234;28;20423;-71
2023/08/25 09:27:22;;;;;;;9.40;2.37;;;21.20;99.90;;;;;;5028869;28;20497;-72
2023/08/25 09:29:56;;;;;;;7.00;2.25;;;21.50;99.90;;;;;;5028693;28;20395;-72
2023/08/25 09:32:24;;;;;;;9.75;2.65;;;21.70;99.90;;;;;;5028912;28;20789;-72
2023/08/25 09:34:49;;;;;;;6.50;2.30;;;21.80;99.90;;;;;;5030053;28;20415;-70
2023/08/25 09:37:15;;;;;;;7.10;2.40;;;21.90;24.10;;;;;;5029951;28;20438;-71
2023/08/25 09:39:43;;;;;;;8.43;2.50;;;22.10;11.40;;;;;;5029493;28;20399;-71
2023/08/25 09:42:09;;;;;;;6.00;2.27;;;22.10;6.70;;;;;;5028833;28;20383;-71
2023/08/25 09:44:34;;;;;;;6.20;2.25;;;22.00;30.20;;;;;;5028169;28;20682;-70
2023/08/25 09:47:01;;;;;;;6.78;2.63;;;22.00;43.70;;;;;;5028092;28;20430;-71
2023/08/25 09:49:38;;;;;;;7.20;2.80;;;21.90;54.90;;;;;;5022032;28;20387;-71
2023/08/25 09:52:06;;;;;;;9.35;2.50;;;21.80;80.20;;;;;;5014825;28;20389;-71
2023/08/25 09:54:33;;;;;;;7.15;2.85;;;22.00;72.30;;;;;;5024153;28;20426;-71
2023/08/25 09:56:59;;;;;;;6.63;2.40;;;21.90;91.30;;;;;;5028485;28;20445;-71
2023/08/25 09:59:25;;;;;;;7.50;3.22;;;21.90;98.10;;;;;;5027482;28;20403;-70
2023/08/25 10:01:51;;;;;;;8.60;3.07;;;22.00;92.40;;;;;;5027766;28;20968;-70
2023/08/25 10:04:17;;;;;;;7.47;3.10;;;22.10;48.20;;;;;;5028473;28;20482;-71
2023/08/25 10:06:42;;;;;;;5.88;2.20;;;22.20;30.10;;;;;;5028306;28;20391;-71
2023/08/25 10:09:08;;;;;;;7.23;2.00;;;22.30;11.30;;;;;;5028407;28;20444;-70
2023/08/25 10:11:35;;;;;;;6.80;2.20;;;22.30;1.00;;;;;;5028314;28;20394;-70
2023/08/25 10:14:04;;;;;;;7.50;2.53;;;22.30;1.00;;;;;;5026935;28;20410;-70
2023/08/25 10:16:37;;;;;;;5.40;1.70;;;22.40;1.00;;;;;;5027595;28;20438;-70
2023/08/25 10:19:04;;;;;;;8.02;2.40;;;22.30;1.00;;;;;;5024639;28;20529;-70
2023/08/25 10:21:31;;;;;;;5.40;1.70;;;22.20;1.00;;;;;;5027977;28;20395;-71
2023/08/25 10:23:59;;;;;;;8.68;2.78;;;22.30;1.00;;;;;;5028192;28;20391;-70
2023/08/25 10:26:26;;;;;;;7.00;2.50;;;22.40;1.00;;;;;;5028254;28;20453;-70
2023/08/25 10:28:52;;;;;;;7.55;2.10;;;22.70;1.00;;;;;;5028428;28;20407;-70
2023/08/25 10:31:18;;;;;;;7.30;2.30;;;22.90;1.00;;;;;;5028268;28;20379;-70
2023/08/25 10:33:47;;;;;;;5.95;2.05;;;23.10;1.00;;;;;;5027309;28;21650;-70
2023/08/25 10:36:20;;;;;;;7.60;2.65;;;22.90;1.00;;;;;;5010424;28;20420;-70
2023/08/25 10:38:48;;;;;;;6.88;2.50;;;23.00;1.00;;;;;;5018708;28;20395;-70
2023/08/25 10:41:18;;;;;;;7.05;2.40;;;23.10;1.00;;;;;;5027184;28;20411;-69
2023/08/25 10:43:54;;;;;;;6.85;2.70;;;23.30;1.00;;;;;;5027230;28;20394;-69
2023/08/25 10:46:22;;;;;;;7.13;2.60;;;23.50;1.00;;;;;;5027229;28;20746;-70
2023/08/25 10:49:01;;;;;;;5.80;2.30;;;23.30;1.00;;;;;;5026993;28;20411;-70
2023/08/25 10:51:27;;;;;;;6.77;2.50;;;23.00;1.00;;;;;;5027822;28;20777;-70
2023/08/25 10:53:54;;;;;;;6.53;2.30;;;23.00;1.00;;;;;;5028432;28;20462;-70
2023/08/25 10:56:23;;;;;;;7.55;2.50;;;23.10;1.00;;;;;;5027623;28;20423;-70
2023/08/25 10:59:11;;;;;;;6.70;2.10;;;23.10;1.00;;;;;;5029466;28;20391;-70
2023/08/25 11:01:37;;;;;;;6.78;2.33;;;23.10;1.00;;;;;;5028404;28;20423;-70
2023/08/25 11:04:07;;;;;;;8.40;1.87;;;23.10;1.00;;;;;;5031671;28;20442;-70
2023/08/25 11:06:46;;;;;;;7.30;2.10;;;23.10;1.00;;;;;;5030054;28;20472;-70
2023/08/25 11:09:20;;;;;;;7.10;2.30;;;23.20;1.00;;;;;;5028609;28;20399;-70
2023/08/25 11:11:54;;;;;;;7.60;2.40;;;23.10;1.00;;;;;;5027958;28;21107;-71
2023/08/25 11:14:20;;;;;;;6.00;2.10;;;23.10;1.00;;;;;;5027845;28;20418;-71
2023/08/25 11:16:45;;;;;;;6.40;2.40;;;23.30;1.00;;;;;;5026789;28;20914;-71
2023/08/25 11:19:13;;;;;;;6.30;2.40;;;23.30;99.90;;;;;;5029879;28;20506;-70
2023/08/25 11:21:39;;;;;;;5.70;2.15;;;23.50;1.00;;;;;;5016451;28;20813;-71
2023/08/25 11:24:04;;;;;;;7.40;2.70;;;23.60;99.90;;;;;;5021998;28;20395;-71
2023/08/25 11:26:35;;;;;;;6.20;2.10;;;23.60;99.90;;;;;;5030376;28;20419;-70
2023/08/25 11:29:04;;;;;;;5.77;2.10;;;23.50;99.90;;;;;;5031003;28;20460;-71
2023/08/25 11:31:30;;;;;;;5.80;2.08;;;23.30;1.00;;;;;;5030915;28;20409;-70
2023/08/25 11:33:55;;;;;;;7.70;2.60;;;23.20;1.00;;;;;;5030833;28;20396;-70
2023/08/25 11:36:24;;;;;;;6.67;2.43;;;23.30;99.90;;;;;;5031315;28;20457;-70
2023/08/25 11:38:50;;;;;;;6.72;2.30;;;23.70;99.90;;;;;;5031361;28;20395;-70
2023/08/25 11:41:17;;;;;;;5.80;2.10;;;24.00;83.60;;;;;;5030455;28;20801;-68
2023/08/25 11:43:45;;;;;;;6.88;2.78;;;24.00;1.00;;;;;;5030805;28;20430;-68
2023/08/25 11:46:11;;;;;;;6.65;2.53;;;24.00;58.00;;;;;;5030775;28;20418;-68
2023/08/25 11:48:37;;;;;;;8.23;2.65;;;24.00;99.90;;;;;;5030551;28;20464;-69
2023/08/25 11:51:04;;;;;;;6.87;2.57;;;24.00;99.90;;;;;;5029585;28;20399;-69
2023/08/25 11:53:30;;;;;;;6.35;2.50;;;24.00;99.90;;;;;;5011565;28;20824;-68
2023/08/25 11:56:05;;;;;;;7.47;2.72;;;24.20;99.90;;;;;;5010243;28;20483;-68
2023/08/25 11:58:34;;;;;;;7.47;2.23;;;24.30;37.60;;;;;;5024367;28;20395;-68
2023/08/25 12:01:03;;;;;;;7.57;2.80;;;24.20;99.90;;;;;;5030293;28;20423;-68
2023/08/25 12:03:29;;;;;;;7.13;2.65;;;24.10;99.90;;;;;;5030154;28;20497;-68
2023/08/25 12:05:54;;;;;;;9.23;2.70;;;24.00;1.00;;;;;;5030307;28;20886;-68
2023/08/25 12:08:23;;;;;;;6.95;2.53;;;24.00;1.00;;;;;;5028204;28;20411;-71
2023/08/25 12:10:48;;;;;;;6.80;2.50;;;24.00;1.00;;;;;;5029346;28;20422;-71
2023/08/25 12:13:15;;;;;;;6.30;2.00;;;24.10;1.00;;;;;;5023851;28;20899;-71
2023/08/25 12:15:42;;;;;;;8.80;2.67;;;24.00;99.90;;;;;;5025368;28;20415;-70
2023/08/25 12:18:08;;;;;;;6.32;2.50;;;23.90;1.00;;;;;;5016854;28;20919;-71
2023/08/25 12:20:33;;;;;;;7.03;2.30;;;24.00;99.90;;;;;;5028843;28;20499;-71
2023/08/25 12:23:00;;;;;;;6.53;2.33;;;24.10;99.90;;;;;;5029672;28;20731;-69
2023/08/25 12:25:26;;;;;;;6.63;2.30;;;24.30;1.00;;;;;;5029574;28;20392;-68
2023/08/25 12:27:53;;;;;;;6.20;2.30;;;24.20;99.90;;;;;;5028285;28;20453;-69
2023/08/25 12:30:19;;;;;;;8.43;2.42;;;24.30;99.90;;;;;;5016514;28;20407;-69
2023/08/25 12:32:44;;;;;;;6.75;2.60;;;24.40;1.00;;;;;;5027161;28;20469;-69
2023/08/25 12:35:10;;;;;;;7.90;2.70;;;24.40;1.00;;;;;;5029367;28;20419;-69
2023/08/25 12:37:36;;;;;;;7.10;2.30;;;24.50;99.90;;;;;;5029527;28;20398;-69
2023/08/25 12:40:01;;;;;;;6.82;2.60;;;24.70;99.90;;;;;;5029807;28;20395;-69
2023/08/25 12:42:26;;;;;;;7.07;2.88;;;24.80;1.00;;;;;;5024280;28;20780;-69
2023/08/25 12:44:52;;;;;;;8.20;3.10;;;25.00;99.90;;;;;;5010687;28;20496;-69
2023/08/25 12:47:17;;;;;;;7.30;2.90;;;25.00;1.00;;;;;;5023389;28;20460;-69
2023/08/25 12:49:43;;;;;;;9.00;3.20;;;25.10;99.90;;;;;;5029479;28;20424;-69